Brockway, California
Current Conditions -  °F | °C
As of 12:45 PM on Friday 19 Dec 2014 (Local Time) from KTRK Reporting Station
Moderate Snow Moderate Snow  
Wind Chill: 32°   Ceiling: 1000
Heat Index: 32°   Visibility: 0.5mi
Dew Point: 32°   Wind: 0mph
Humidity: 100%   Direction: NA
Pressure: 30.16"   Gusts: NA
Location:  39.278°N, 120.051°W
Report Text: KTRK 192045Z 00000KT 1/2SM SN OVC010 00/00 A3016 RMK NOSPECI
Loading
Personal Weather Stations






























Interactive Weather Map New forecast layout! Learn more

10-Day Weather Forecast

Advertisements
Track Severe Weather on mobile